createdAt,value
2023-07-04T00:01:12.919Z,100313.47
2023-07-04T00:03:15.918Z,100325.13
2023-07-04T00:05:19.256Z,100326.16
2023-07-04T00:07:22.475Z,100332.56
2023-07-04T00:09:25.331Z,100329.94
2023-07-04T00:11:29.863Z,100330.91
2023-07-04T00:13:33.709Z,100331.75
2023-07-04T00:15:36.645Z,100327.56
2023-07-04T00:17:40.976Z,100335.38
2023-07-04T00:19:43.797Z,100338.06
2023-07-04T00:21:46.696Z,100331.09
2023-07-04T00:23:54.149Z,100324.81
2023-07-04T00:25:58.362Z,100331.81
2023-07-04T00:28:06.233Z,100332.00
2023-07-04T00:30:11.612Z,100327.56
2023-07-04T00:32:16.133Z,100331.94
2023-07-04T00:34:21.416Z,100336.53
2023-07-04T00:36:24.769Z,100344.34
2023-07-04T00:38:28.615Z,100335.56
2023-07-04T00:40:31.510Z,100341.81
2023-07-04T00:42:37.042Z,100340.00
2023-07-04T00:44:46.002Z,100343.44
2023-07-04T00:46:55.659Z,100347.38
2023-07-04T00:49:01.826Z,100349.16
2023-07-04T00:51:06.085Z,100351.81
2023-07-04T00:53:13.139Z,100345.50
2023-07-04T00:55:16.302Z,100342.22
2023-07-04T00:57:21.426Z,100346.66
2023-07-04T00:59:24.890Z,100351.97
2023-07-04T01:01:28.198Z,100351.13
2023-07-04T01:03:31.202Z,100342.31
2023-07-04T01:05:41.707Z,100341.28
2023-07-04T01:07:52.499Z,100348.53
2023-07-04T01:10:00.317Z,100341.56
2023-07-04T01:12:05.364Z,100340.75
2023-07-04T01:14:19.987Z,100348.00
2023-07-04T01:16:23.640Z,100348.69
2023-07-04T01:18:26.550Z,100359.47
2023-07-04T01:20:29.614Z,100352.41
2023-07-04T01:22:38.298Z,100353.34
2023-07-04T01:24:56.008Z,100359.47
2023-07-04T01:27:00.985Z,100355.84
2023-07-04T01:29:06.360Z,100359.50
2023-07-04T01:31:09.692Z,100353.38
2023-07-04T01:33:14.477Z,100357.66
2023-07-04T01:35:19.165Z,100360.47
2023-07-04T01:37:22.096Z,100367.44
2023-07-04T01:39:26.801Z,100356.06
2023-07-04T01:41:30.475Z,100364.75
2023-07-04T01:43:34.716Z,100367.63
2023-07-04T01:45:37.606Z,100363.31
2023-07-04T01:47:41.099Z,100370.25
2023-07-04T01:49:44.179Z,100375.59
2023-07-04T01:51:47.192Z,100371.06
2023-07-04T01:53:50.667Z,100374.66
2023-07-04T01:55:53.585Z,100373.75
2023-07-04T01:57:56.517Z,100379.06
2023-07-04T02:00:00.727Z,100380.84
2023-07-04T02:02:03.623Z,100378.28
2023-07-04T02:04:06.800Z,100380.91
2023-07-04T02:06:09.748Z,100378.25
2023-07-04T02:08:13.595Z,100388.81
2023-07-04T02:10:16.807Z,100394.91
2023-07-04T02:12:19.966Z,100387.97
2023-07-04T02:14:22.862Z,100380.06
2023-07-04T02:16:27.550Z,100382.66
2023-07-04T02:18:30.394Z,100384.63
2023-07-04T02:20:33.322Z,100379.25
2023-07-04T02:22:36.232Z,100387.31
2023-07-04T02:24:39.113Z,100385.38
2023-07-04T02:26:42.020Z,100392.50
2023-07-04T02:28:44.866Z,100390.59
2023-07-04T02:30:54.867Z,100394.19
2023-07-04T02:32:59.494Z,100392.41
2023-07-04T02:35:03.707Z,100399.34
2023-07-04T02:37:08.227Z,100395.16
2023-07-04T02:39:11.233Z,100393.50
2023-07-04T02:41:14.491Z,100397.06
2023-07-04T02:43:18.194Z,100397.94
2023-07-04T02:45:21.139Z,100391.91
2023-07-04T02:47:27.574Z,100390.84
2023-07-04T02:49:36.457Z,100389.16
2023-07-04T02:51:39.999Z,100389.94
2023-07-04T02:53:42.930Z,100392.63
2023-07-04T02:55:45.798Z,100394.34
2023-07-04T02:57:48.758Z,100397.06
2023-07-04T02:59:51.775Z,100390.84
2023-07-04T03:01:55.071Z,100397.06
2023-07-04T03:03:59.018Z,100394.47
2023-07-04T03:06:03.592Z,100393.59
2023-07-04T03:08:07.595Z,100403.25
2023-07-04T03:10:11.001Z,100408.44
2023-07-04T03:12:14.296Z,100401.53
2023-07-04T03:14:17.200Z,100403.25
2023-07-04T03:16:20.918Z,100405.06
2023-07-04T03:18:24.231Z,100417.41
2023-07-04T03:20:28.440Z,100420.91
2023-07-04T03:22:32.988Z,100418.25
2023-07-04T03:24:35.952Z,100420.09
2023-07-04T03:26:41.909Z,100425.38
2023-07-04T03:28:44.732Z,100427.13
2023-07-04T03:30:48.902Z,100428.88
2023-07-04T03:32:51.826Z,100428.03
2023-07-04T03:34:56.584Z,100433.34
2023-07-04T03:37:00.025Z,100429.84
2023-07-04T03:39:05.022Z,100438.53
2023-07-04T03:41:08.053Z,100436.84
2023-07-04T03:43:10.896Z,100435.09
2023-07-04T03:45:13.977Z,100445.63
2023-07-04T03:47:16.894Z,100440.38
2023-07-04T03:49:19.698Z,100446.50
2023-07-04T03:51:22.526Z,100442.09
2023-07-04T03:53:25.681Z,100435.09
2023-07-04T03:55:29.871Z,100445.63
2023-07-04T03:57:32.788Z,100449.09
2023-07-04T03:59:35.651Z,100451.72
2023-07-04T04:01:38.690Z,100455.22
2023-07-04T04:03:41.692Z,100450.84
2023-07-04T04:05:46.131Z,100454.25
2023-07-04T04:07:49.953Z,100451.94
2023-07-04T04:09:52.847Z,100453.09
2023-07-04T04:11:57.073Z,100451.63
2023-07-04T04:14:00.051Z,100449.47
2023-07-04T04:16:03.124Z,100448.38
2023-07-04T04:18:06.122Z,100446.50
2023-07-04T04:20:13.162Z,100441.16
2023-07-04T04:22:16.954Z,100442.81
2023-07-04T04:24:19.788Z,100452.41
2023-07-04T04:26:23.342Z,100449.84
2023-07-04T04:28:27.976Z,100455.47
2023-07-04T04:30:51.804Z,100459.47
2023-07-04T04:32:54.921Z,100470.28
2023-07-04T04:34:57.761Z,100457.31
2023-07-04T04:37:00.633Z,100463.63
2023-07-04T04:39:04.990Z,100457.53
2023-07-04T04:41:09.470Z,100466.41
2023-07-04T04:43:12.338Z,100462.06
2023-07-04T04:45:16.556Z,100466.44
2023-07-04T04:47:23.216Z,100477.84
2023-07-04T04:49:26.024Z,100471.69
2023-07-04T04:51:29.189Z,100473.44
2023-07-04T04:53:32.321Z,100476.94
2023-07-04T04:55:36.572Z,100471.63
2023-07-04T04:57:39.745Z,100473.28
2023-07-04T04:59:42.661Z,100474.97
2023-07-04T05:01:47.224Z,100477.50
2023-07-04T05:03:51.224Z,100481.16
2023-07-04T05:05:54.063Z,100475.84
2023-07-04T05:07:56.957Z,100475.69
2023-07-04T05:10:00.165Z,100480.84
2023-07-04T05:12:03.151Z,100474.69
2023-07-04T05:14:08.677Z,100471.97
2023-07-04T05:16:14.879Z,100471.00
2023-07-04T05:18:19.133Z,100470.06
2023-07-04T05:20:24.771Z,100468.16
2023-07-04T05:22:27.617Z,100472.47
2023-07-04T05:24:32.290Z,100482.84
2023-07-04T05:26:35.331Z,100470.50
2023-07-04T05:28:38.313Z,100478.19
2023-07-04T05:30:41.094Z,100485.19
2023-07-04T05:32:43.933Z,100483.31
2023-07-04T05:34:50.323Z,100489.34
2023-07-04T05:36:53.115Z,100487.50
2023-07-04T05:39:00.905Z,100481.19
2023-07-04T05:41:04.531Z,100483.72
2023-07-04T05:43:07.376Z,100488.88
2023-07-04T05:45:10.845Z,100484.38
2023-07-04T05:47:13.741Z,100479.91
2023-07-04T05:49:16.564Z,100479.75
2023-07-04T05:51:22.031Z,100482.22
2023-07-04T05:53:26.860Z,100480.38
2023-07-04T05:55:31.587Z,100486.50
2023-07-04T05:57:35.837Z,100485.50
2023-07-04T05:59:38.663Z,100495.91
2023-07-04T06:01:45.108Z,100489.59
2023-07-04T06:03:48.089Z,100489.47
2023-07-04T06:05:50.987Z,100484.03
2023-07-04T06:07:55.166Z,100490.94
2023-07-04T06:09:58.029Z,100486.31
2023-07-04T06:12:00.840Z,100481.81
2023-07-04T06:14:04.141Z,100490.56
2023-07-04T06:16:07.167Z,100489.63
2023-07-04T06:18:10.042Z,100489.47
2023-07-04T06:20:14.098Z,100492.00
2023-07-04T06:22:16.987Z,100492.81
2023-07-04T06:24:21.923Z,100489.13
2023-07-04T06:26:28.955Z,100490.72
2023-07-04T06:28:32.090Z,100486.16
2023-07-04T06:30:36.256Z,100498.31
2023-07-04T06:32:39.201Z,100493.75
2023-07-04T06:34:42.037Z,100500.69
2023-07-04T06:36:49.444Z,100504.09
2023-07-04T06:38:52.761Z,100496.94
2023-07-04T06:41:02.378Z,100501.13
2023-07-04T06:43:06.299Z,100501.84
2023-07-04T06:45:09.771Z,100503.44
2023-07-04T06:47:13.063Z,100501.66
2023-07-04T06:49:16.001Z,100508.59
2023-07-04T06:51:20.722Z,100507.31
2023-07-04T06:53:23.613Z,100517.78
2023-07-04T06:55:26.568Z,100508.22
2023-07-04T06:57:30.726Z,100509.06
2023-07-04T06:59:33.573Z,100517.75
2023-07-04T07:01:40.132Z,100512.31
2023-07-04T07:03:43.623Z,100520.09
2023-07-04T07:05:46.578Z,100522.53
2023-07-04T07:07:49.445Z,100529.31
2023-07-04T07:09:52.335Z,100523.06
2023-07-04T07:11:55.164Z,100533.50
2023-07-04T07:13:59.346Z,100520.97
2023-07-04T07:16:11.209Z,100527.00
2023-07-04T07:18:14.104Z,100534.16
2023-07-04T07:20:17.416Z,100527.72
2023-07-04T07:22:20.422Z,100530.06
2023-07-04T07:24:23.288Z,100531.75
2023-07-04T07:26:28.450Z,100522.78
2023-07-04T07:28:35.823Z,100534.06
2023-07-04T07:30:40.427Z,100532.06
2023-07-04T07:32:43.283Z,100535.47
2023-07-04T07:34:46.183Z,100536.22
2023-07-04T07:36:49.402Z,100533.44
2023-07-04T07:38:54.096Z,100528.63
2023-07-04T07:40:56.985Z,100535.56
2023-07-04T07:42:59.768Z,100533.47
2023-07-04T07:45:03.057Z,100535.16
2023-07-04T07:47:07.578Z,100532.16
2023-07-04T07:49:10.593Z,100531.88
2023-07-04T07:51:13.914Z,100530.13
2023-07-04T07:53:17.237Z,100526.47
2023-07-04T07:55:20.261Z,100523.16
2023-07-04T07:57:23.163Z,100528.28
2023-07-04T07:59:26.003Z,100533.25
2023-07-04T08:01:32.249Z,100530.25
2023-07-04T08:03:36.536Z,100511.69
2023-07-04T08:05:40.093Z,100513.19
2023-07-04T08:07:42.897Z,100507.69
2023-07-04T08:09:45.756Z,100515.47
2023-07-04T08:11:52.623Z,100520.53
2023-07-04T08:13:57.361Z,100510.31
2023-07-04T08:16:00.285Z,100511.00
2023-07-04T08:18:06.441Z,100504.75
2023-07-04T08:20:12.288Z,100518.78
2023-07-04T08:22:15.167Z,100514.50
2023-07-04T08:24:18.928Z,100509.09
2023-07-04T08:26:24.470Z,100508.03
2023-07-04T08:28:27.764Z,100508.72
2023-07-04T08:30:30.617Z,100512.19
2023-07-04T08:32:34.981Z,100510.25
2023-07-04T08:34:37.953Z,100509.19
2023-07-04T08:36:43.107Z,100503.94
2023-07-04T08:38:48.808Z,100506.66
2023-07-04T08:40:52.254Z,100511.78
2023-07-04T08:42:55.289Z,100504.38
2023-07-04T08:44:58.409Z,100503.81
2023-07-04T08:47:01.505Z,100502.50
2023-07-04T08:49:05.702Z,100504.09
2023-07-04T08:51:08.751Z,100502.06
2023-07-04T08:53:18.185Z,100500.97
2023-07-04T08:55:22.585Z,100510.63
2023-07-04T08:57:31.825Z,100506.69
2023-07-04T08:59:43.525Z,100502.06
2023-07-04T09:02:02.154Z,100509.38
2023-07-04T09:04:10.426Z,100505.41
2023-07-04T09:06:19.017Z,100507.00
2023-07-04T09:08:43.489Z,100508.06
2023-07-04T09:10:48.737Z,100501.09
2023-07-04T09:12:52.203Z,100506.00
2023-07-04T09:15:02.773Z,100505.81
2023-07-04T09:17:18.914Z,100503.75
2023-07-04T09:19:22.020Z,100504.28
2023-07-04T09:21:26.865Z,100497.69
2023-07-04T09:23:31.963Z,100501.00
2023-07-04T09:25:34.981Z,100491.84
2023-07-04T09:27:37.810Z,100496.72
2023-07-04T09:29:40.658Z,100507.22
2023-07-04T09:31:46.319Z,100505.25
2023-07-04T09:33:50.315Z,100502.38
2023-07-04T09:35:53.485Z,100504.81
2023-07-04T09:37:58.950Z,100502.81
2023-07-04T09:40:05.552Z,100502.91
2023-07-04T09:42:23.208Z,100501.53
2023-07-04T09:44:34.881Z,100491.31
2023-07-04T09:46:37.791Z,100499.66
2023-07-04T09:48:41.226Z,100498.59
2023-07-04T09:50:44.080Z,100495.25
2023-07-04T09:52:46.979Z,100488.19
2023-07-04T09:55:11.711Z,100487.69
2023-07-04T09:57:21.429Z,100486.91
2023-07-04T09:59:27.992Z,100490.34
2023-07-04T10:01:31.697Z,100486.84
2023-07-04T10:03:34.727Z,100487.22
2023-07-04T10:05:38.517Z,100490.66
2023-07-04T10:07:41.379Z,100487.75
2023-07-04T10:09:52.392Z,100489.81
2023-07-04T10:12:10.853Z,100482.44
2023-07-04T10:14:15.317Z,100481.81
2023-07-04T10:16:24.457Z,100477.84
2023-07-04T10:18:30.094Z,100480.03
2023-07-04T10:20:38.154Z,100475.06
2023-07-04T10:22:49.144Z,100478.19
2023-07-04T10:24:52.227Z,100471.00
2023-07-04T10:27:01.028Z,100475.53
2023-07-04T10:29:05.230Z,100476.03
2023-07-04T10:31:15.665Z,100471.47
2023-07-04T10:33:25.480Z,100468.78
2023-07-04T10:35:32.282Z,100471.31
2023-07-04T10:37:38.543Z,100469.44
2023-07-04T10:39:41.615Z,100464.09
2023-07-04T10:41:54.295Z,100464.09
2023-07-04T10:44:03.599Z,100471.31
2023-07-04T10:46:11.136Z,100468.66
2023-07-04T10:48:16.852Z,100458.94
2023-07-04T10:50:23.821Z,100471.91
2023-07-04T10:52:33.314Z,100455.69
2023-07-04T10:54:36.144Z,100460.31
2023-07-04T10:56:41.618Z,100455.16
2023-07-04T10:58:47.310Z,100454.69
2023-07-04T11:00:56.501Z,100455.72
2023-07-04T11:03:03.721Z,100444.34
2023-07-04T11:05:12.501Z,100455.69
2023-07-04T11:07:21.798Z,100441.09
2023-07-04T11:09:24.704Z,100439.41
2023-07-04T11:11:30.364Z,100442.34
2023-07-04T11:13:34.975Z,100443.41
2023-07-04T11:15:41.870Z,100443.25
2023-07-04T11:17:48.015Z,100436.03
2023-07-04T11:19:57.045Z,100438.75
2023-07-04T11:22:16.216Z,100434.44
2023-07-04T11:24:21.827Z,100435.16
2023-07-04T11:26:50.896Z,100435.00
2023-07-04T11:29:09.141Z,100438.19
2023-07-04T11:31:19.763Z,100429.44
2023-07-04T11:33:45.367Z,100423.78
2023-07-04T11:35:50.395Z,100429.09
2023-07-04T11:37:58.535Z,100432.94
2023-07-04T11:40:06.221Z,100432.84
2023-07-04T11:42:18.846Z,100426.84
2023-07-04T11:44:27.481Z,100426.06
2023-07-04T11:46:31.264Z,100418.84
2023-07-04T11:48:36.592Z,100429.59
2023-07-04T11:50:44.310Z,100417.50
2023-07-04T11:52:57.279Z,100415.69
2023-07-04T11:55:07.160Z,100419.53
2023-07-04T11:57:16.200Z,100410.91
2023-07-04T11:59:44.811Z,100418.50
2023-07-04T12:02:36.050Z,100408.91
2023-07-04T12:04:57.016Z,100416.22
2023-07-04T12:07:04.855Z,100405.75
2023-07-04T12:09:12.806Z,100406.25
2023-07-04T12:11:22.870Z,100403.50
2023-07-04T12:13:27.724Z,100407.56
2023-07-04T12:15:32.653Z,100403.50
2023-07-04T12:17:39.162Z,100399.91
2023-07-04T12:19:42.307Z,100402.13
2023-07-04T12:21:47.541Z,100398.50
2023-07-04T12:23:52.166Z,100399.34
2023-07-04T12:25:57.458Z,100401.72
2023-07-04T12:28:03.881Z,100399.22
2023-07-04T12:30:10.405Z,100402.22
2023-07-04T12:32:19.350Z,100398.13
2023-07-04T12:34:29.415Z,100383.63
2023-07-04T12:36:38.663Z,100395.38
2023-07-04T12:38:46.167Z,100390.38
2023-07-04T12:40:51.130Z,100392.22
2023-07-04T12:42:54.562Z,100378.81
2023-07-04T12:44:58.115Z,100386.09
2023-07-04T12:51:16.437Z,100381.47
2023-07-04T12:53:20.646Z,100373.66
2023-07-04T12:55:28.443Z,100377.53
2023-07-04T12:57:33.813Z,100380.44
2023-07-04T12:59:38.677Z,100373.28
2023-07-04T13:01:44.254Z,100377.53
2023-07-04T13:03:47.445Z,100367.38
2023-07-04T13:05:53.233Z,100378.69
2023-07-04T13:07:56.259Z,100372.44
2023-07-04T13:10:01.734Z,100369.78
2023-07-04T13:12:05.015Z,100359.69
2023-07-04T13:14:11.723Z,100363.28
2023-07-04T13:16:17.139Z,100358.66
2023-07-04T13:18:33.311Z,100360.97
2023-07-04T13:20:38.796Z,100352.75
2023-07-04T13:27:08.566Z,100347.97
2023-07-04T13:33:37.907Z,100345.31
2023-07-04T13:35:42.252Z,100329.16
2023-07-04T13:39:53.356Z,100342.56
2023-07-04T13:41:58.994Z,100335.41
2023-07-04T13:46:09.159Z,100333.06
2023-07-04T13:48:12.372Z,100316.06
2023-07-04T13:50:15.699Z,100319.09
2023-07-04T13:52:20.530Z,100325.31
2023-07-04T13:54:23.373Z,100321.84
2023-07-04T13:56:26.785Z,100315.69
2023-07-04T13:58:29.916Z,100312.03
2023-07-04T14:00:37.942Z,100310.16
2023-07-04T14:07:08.788Z,100319.66
2023-07-04T14:09:11.723Z,100306.91
2023-07-04T14:11:16.205Z,100304.72
2023-07-04T14:13:19.074Z,100302.16
2023-07-04T14:16:37.390Z,100312.56
2023-07-04T14:19:56.880Z,100305.38
2023-07-04T14:20:12.219Z,100302.13
2023-07-04T14:22:15.592Z,100303.44
2023-07-04T14:24:18.534Z,100296.66
2023-07-04T14:26:23.757Z,100298.31
2023-07-04T14:28:26.604Z,100288.75
2023-07-04T14:30:29.521Z,100290.09
2023-07-04T14:32:35.625Z,100288.56
2023-07-04T14:34:38.505Z,100291.81
2023-07-04T14:36:42.746Z,100282.53
2023-07-04T14:38:45.593Z,100288.38
2023-07-04T14:42:54.412Z,100284.41
2023-07-04T14:44:57.217Z,100275.22
2023-07-04T14:47:00.063Z,100280.47
2023-07-04T14:49:03.274Z,100272.13
2023-07-04T14:51:08.441Z,100272.41
2023-07-04T14:53:12.598Z,100269.72
2023-07-04T14:55:15.263Z,100266.19
2023-07-04T14:57:18.160Z,100269.78
2023-07-04T14:59:21.069Z,100255.88
2023-07-04T15:01:24.599Z,100258.72
2023-07-04T15:03:30.489Z,100254.59
2023-07-04T15:05:33.383Z,100258.41
2023-07-04T15:07:36.374Z,100251.16
2023-07-04T15:09:40.877Z,100254.97
2023-07-04T15:11:43.518Z,100252.84
2023-07-04T15:13:47.366Z,100247.28
2023-07-04T15:15:51.845Z,100246.75
2023-07-04T15:17:54.960Z,100236.38
2023-07-04T15:19:57.842Z,100240.94
2023-07-04T15:22:00.954Z,100244.06
2023-07-04T15:24:03.813Z,100237.81
2023-07-04T15:28:14.383Z,100228.94
2023-07-04T15:30:17.465Z,100230.22
2023-07-04T15:32:20.364Z,100219.06
2023-07-04T15:34:23.457Z,100233.41
2023-07-04T15:36:26.514Z,100219.66
2023-07-04T15:38:29.316Z,100222.31
2023-07-04T15:40:32.422Z,100214.16
2023-07-04T15:42:37.855Z,100221.59
2023-07-04T15:44:40.710Z,100220.34
2023-07-04T15:46:43.583Z,100212.28
2023-07-04T15:48:47.553Z,100215.41
2023-07-04T15:50:50.472Z,100209.22
2023-07-04T15:52:53.290Z,100202.22
2023-07-04T15:54:56.110Z,100201.41
2023-07-04T15:56:58.928Z,100201.00
2023-07-04T15:59:03.188Z,100204.06
2023-07-04T16:01:07.271Z,100191.84
2023-07-04T16:03:10.032Z,100196.91
2023-07-04T16:05:13.508Z,100191.84
2023-07-04T16:07:16.346Z,100189.50
2023-07-04T16:09:19.199Z,100200.63
2023-07-04T16:11:22.053Z,100190.22
2023-07-04T16:13:25.297Z,100191.06
2023-07-04T16:15:29.554Z,100191.69
2023-07-04T16:17:32.482Z,100190.59
2023-07-04T16:19:35.309Z,100191.34
2023-07-04T16:21:38.456Z,100189.69
2023-07-04T16:23:41.798Z,100194.84
2023-07-04T16:25:47.263Z,100179.38
2023-07-04T16:27:50.133Z,100193.44
2023-07-04T16:29:53.037Z,100188.91
2023-07-04T16:31:57.296Z,100177.97
2023-07-04T16:34:00.356Z,100186.06
2023-07-04T16:36:05.061Z,100180.63
2023-07-04T16:38:07.921Z,100175.38
2023-07-04T16:40:12.251Z,100179.75
2023-07-04T16:42:15.036Z,100176.72
2023-07-04T16:44:17.892Z,100175.19
2023-07-04T16:46:20.713Z,100169.09
2023-07-04T16:48:24.968Z,100178.25
2023-07-04T16:50:32.191Z,100169.44
2023-07-04T16:52:35.929Z,100171.34
2023-07-04T16:54:38.841Z,100161.72
2023-07-04T16:56:41.656Z,100158.09
2023-07-04T16:58:44.449Z,100162.41
2023-07-04T17:00:47.310Z,100168.13
2023-07-04T17:02:51.441Z,100162.41
2023-07-04T17:04:55.812Z,100164.63
2023-07-04T17:06:58.602Z,100164.81
2023-07-04T17:09:03.180Z,100161.50
2023-07-04T17:11:06.899Z,100162.44
2023-07-04T17:13:09.961Z,100159.06
2023-07-04T17:15:12.884Z,100157.63
2023-07-04T17:17:16.842Z,100162.13
2023-07-04T17:19:19.705Z,100160.66
2023-07-04T17:21:23.885Z,100150.09
2023-07-04T17:23:26.548Z,100150.47
2023-07-04T17:25:29.410Z,100154.88
2023-07-04T17:27:32.298Z,100160.00
2023-07-04T17:29:35.167Z,100150.28
2023-07-04T17:31:38.219Z,100154.69
2023-07-04T17:33:42.305Z,100151.06
2023-07-04T17:35:55.069Z,100151.59
2023-07-04T17:38:00.729Z,100153.31
2023-07-04T17:40:03.618Z,100157.88
2023-07-04T17:42:06.786Z,100152.91
2023-07-04T17:44:09.584Z,100152.25
2023-07-04T17:46:14.009Z,100148.22
2023-07-04T17:48:16.827Z,100153.47
2023-07-04T17:50:20.586Z,100151.34
2023-07-04T17:52:23.615Z,100147.03
2023-07-04T17:54:27.826Z,100137.13
2023-07-04T17:56:30.558Z,100140.91
2023-07-04T17:58:34.472Z,100139.97
2023-07-04T18:00:37.309Z,100135.56
2023-07-04T18:02:40.239Z,100126.31
2023-07-04T18:04:43.784Z,100131.31
2023-07-04T18:06:46.592Z,100128.88
2023-07-04T18:08:50.855Z,100129.06
2023-07-04T18:10:55.608Z,100133.28
2023-07-04T18:12:58.747Z,100131.06
2023-07-04T18:15:01.538Z,100138.03
2023-07-04T18:17:04.746Z,100138.63
2023-07-04T18:19:07.681Z,100142.66
2023-07-04T18:21:14.790Z,100146.38
2023-07-04T18:23:17.645Z,100139.00
2023-07-04T18:25:20.517Z,100154.53
2023-07-04T18:27:24.941Z,100155.88
2023-07-04T18:29:27.910Z,100150.13
2023-07-04T18:31:31.693Z,100155.50
2023-07-04T18:33:35.360Z,100148.22
2023-07-04T18:35:39.713Z,100154.50
2023-07-04T18:37:42.432Z,100149.63
2023-07-04T18:39:45.255Z,100144.78
2023-07-04T18:41:48.224Z,100140.38
2023-07-04T18:43:52.428Z,100143.22
2023-07-04T18:45:55.197Z,100133.91
2023-07-04T18:47:58.086Z,100137.41
2023-07-04T18:50:01.046Z,100146.13
2023-07-04T18:52:05.285Z,100144.94
2023-07-04T18:54:09.411Z,100143.06
2023-07-04T18:56:13.291Z,100141.63
2023-07-04T18:58:16.550Z,100141.47
2023-07-04T19:00:21.229Z,100143.38
2023-07-04T19:02:24.426Z,100146.78
2023-07-04T19:04:27.440Z,100144.66
2023-07-04T19:06:32.415Z,100144.59
2023-07-04T19:08:35.696Z,100139.34
2023-07-04T19:10:45.157Z,100142.78
2023-07-04T19:12:48.102Z,100137.13
2023-07-04T19:14:52.884Z,100147.69
2023-07-04T19:16:58.770Z,100145.09
2023-07-04T19:19:02.193Z,100149.63
2023-07-04T19:21:05.713Z,100137.38
2023-07-04T19:23:13.144Z,100140.13
2023-07-04T19:25:15.994Z,100149.50
2023-07-04T19:27:21.137Z,100147.88
2023-07-04T19:29:25.145Z,100151.03
2023-07-04T19:31:34.002Z,100149.66
2023-07-04T19:33:51.559Z,100150.72
2023-07-04T19:36:03.852Z,100155.13
2023-07-04T19:38:10.922Z,100152.53
2023-07-04T19:40:15.315Z,100155.91
2023-07-04T19:42:19.323Z,100163.16
2023-07-04T19:44:22.200Z,100162.31
2023-07-04T19:46:25.053Z,100162.66
2023-07-04T19:48:28.844Z,100164.97
2023-07-04T19:50:33.692Z,100160.94
2023-07-04T19:52:36.575Z,100170.75
2023-07-04T19:54:39.477Z,100180.19
2023-07-04T19:56:42.724Z,100179.75
2023-07-04T19:58:46.374Z,100174.81
2023-07-04T20:00:50.519Z,100182.75
2023-07-04T20:02:55.636Z,100177.75
2023-07-04T20:04:58.740Z,100184.19
2023-07-04T20:07:03.589Z,100179.66
2023-07-04T20:09:06.857Z,100179.31
2023-07-04T20:11:10.489Z,100178.63
2023-07-04T20:13:13.367Z,100182.09
2023-07-04T20:15:16.235Z,100174.22
2023-07-04T20:17:19.221Z,100178.63
2023-07-04T20:19:22.537Z,100177.66
2023-07-04T20:21:25.571Z,100179.38
2023-07-04T20:23:29.832Z,100175.50
2023-07-04T20:25:33.348Z,100173.63
2023-07-04T20:27:36.643Z,100171.41
2023-07-04T20:29:39.463Z,100174.66
2023-07-04T20:31:43.605Z,100168.16
2023-07-04T20:33:46.572Z,100163.59
2023-07-04T20:35:49.530Z,100162.00
2023-07-04T20:37:52.320Z,100164.59
2023-07-04T20:39:56.656Z,100169.44
2023-07-04T20:42:00.608Z,100166.25
2023-07-04T20:44:03.555Z,100161.69
2023-07-04T20:46:07.014Z,100158.78
2023-07-04T20:48:12.438Z,100157.03
2023-07-04T20:50:16.874Z,100165.06
2023-07-04T20:52:23.187Z,100160.63
2023-07-04T20:54:26.591Z,100155.19
2023-07-04T20:56:30.870Z,100147.44
2023-07-04T20:58:33.601Z,100144.69
2023-07-04T21:00:38.511Z,100147.34
2023-07-04T21:02:42.170Z,100147.91
2023-07-04T21:04:50.952Z,100154.34
2023-07-04T21:06:54.554Z,100149.31
2023-07-04T21:09:00.415Z,100155.03
2023-07-04T21:11:06.887Z,100150.31
2023-07-04T21:13:19.485Z,100155.75
2023-07-04T21:15:22.492Z,100150.75
2023-07-04T21:17:25.478Z,100151.81
2023-07-04T21:19:28.915Z,100157.25
2023-07-04T21:21:31.819Z,100160.09
2023-07-04T21:23:35.191Z,100145.44
2023-07-04T21:25:38.087Z,100152.22
2023-07-04T21:27:40.974Z,100143.72
2023-07-04T21:29:51.664Z,100145.13
2023-07-04T21:31:54.592Z,100141.19
2023-07-04T21:33:57.470Z,100140.88
2023-07-04T21:36:01.123Z,100139.78
2023-07-04T21:38:04.133Z,100133.78
2023-07-04T21:40:08.612Z,100125.38
2023-07-04T21:42:12.172Z,100129.84
2023-07-04T21:44:15.078Z,100131.69
2023-07-04T21:46:22.794Z,100140.00
2023-07-04T21:48:27.561Z,100134.25
2023-07-04T21:50:30.411Z,100145.38
2023-07-04T21:52:33.488Z,100143.91
2023-07-04T21:54:36.350Z,100139.41
2023-07-04T21:56:39.271Z,100133.28
2023-07-04T21:58:42.104Z,100134.97
2023-07-04T22:00:46.596Z,100139.59
2023-07-04T22:02:50.941Z,100129.69
2023-07-04T22:04:53.705Z,100128.69
2023-07-04T22:06:58.920Z,100126.81
2023-07-04T22:09:02.120Z,100128.44
2023-07-04T22:11:05.172Z,100124.31
2023-07-04T22:13:08.683Z,100119.06
2023-07-04T22:15:12.426Z,100120.09
2023-07-04T22:17:15.351Z,100115.00
2023-07-04T22:19:19.503Z,100111.63
2023-07-04T22:21:22.337Z,100122.31
2023-07-04T22:23:25.436Z,100113.56
2023-07-04T22:25:28.454Z,100110.91
2023-07-04T22:27:31.557Z,100111.88
2023-07-04T22:29:34.380Z,100108.38
2023-07-04T22:31:37.219Z,100107.59
2023-07-04T22:33:43.724Z,100104.94
2023-07-04T22:35:47.902Z,100106.72
2023-07-04T22:37:50.992Z,100103.56
2023-07-04T22:39:53.820Z,100100.03
2023-07-04T22:42:00.851Z,100100.75
2023-07-04T22:44:03.731Z,100096.31
2023-07-04T22:46:06.578Z,100095.34
2023-07-04T22:48:09.461Z,100094.44
2023-07-04T22:50:12.409Z,100094.44
2023-07-04T22:52:16.581Z,100096.13
2023-07-04T22:54:19.498Z,100088.25
2023-07-04T22:56:24.632Z,100079.47
2023-07-04T22:58:27.658Z,100077.00
2023-07-04T23:00:30.492Z,100074.34
2023-07-04T23:02:33.380Z,100079.69
2023-07-04T23:04:36.330Z,100083.06
2023-07-04T23:06:39.155Z,100078.69
2023-07-04T23:08:44.684Z,100066.16
2023-07-04T23:10:47.670Z,100069.06
2023-07-04T23:12:50.554Z,100063.91
2023-07-04T23:14:53.383Z,100068.34
2023-07-04T23:16:56.409Z,100064.91
2023-07-04T23:18:59.306Z,100063.97
2023-07-04T23:21:02.362Z,100057.91
2023-07-04T23:23:05.236Z,100063.31
2023-07-04T23:25:10.482Z,100051.00
2023-07-04T23:27:13.351Z,100047.56
2023-07-04T23:29:16.300Z,100053.72
2023-07-04T23:31:19.406Z,100049.31
2023-07-04T23:33:22.306Z,100052.03
2023-07-04T23:35:25.121Z,100043.19
2023-07-04T23:37:28.064Z,100040.50
2023-07-04T23:39:30.867Z,100033.38
2023-07-04T23:41:35.093Z,100033.22
2023-07-04T23:43:37.922Z,100031.56
2023-07-04T23:45:41.852Z,100018.69
2023-07-04T23:47:44.745Z,100016.09
2023-07-04T23:49:47.646Z,100016.75
2023-07-04T23:51:50.545Z,100008.09
2023-07-04T23:53:53.815Z,100011.75
2023-07-04T23:55:56.688Z,100016.09
2023-07-04T23:58:00.978Z,100010.88
